Airfield :
LOGIN :

Register | Disclaimer

   EN    FR    IT 

 










Legend :    VFR   Marginal VFR   IFR   Intensive IFR   Very Intensive IFR
Visi :
Ceiling :
>= 8 km
>= 3000ft
5 to 8 km
1000 to 3000 ft
1500m to 5 km
500 to 1000 ft
800 to 1500m
200 to 500 ft
< 800m
< 200 ft
Symbols :   Thunderstorms  Fog  Heavy snow  Heavy precipitations  Wind > 20 kt
SIGMETs :     Misc.  Thunderstorms  Icing  Turbulence  Mountain Waves  Volcanic Ashes






- Airport Elevation : 587 ft
- IATA code : XCR


LFOK - Chalons Vatry

CURRENT METAR :
  • 110330Z AUTO 23003KT 200V300 7000 FEW005/// BKN010/// BKN016/// ///CB 10/10 Q1007 TEMPO 3000 RA OVC004

EXPIRED METARs :
  • 110300Z AUTO 20004KT 9999 BKN011/// OVC028/// ///TCU 10/10 Q1007 TEMPO 3000 RA OVC004
  • 110230Z AUTO 22006KT 9999 FEW011 BKN023 10/09 Q1007 TEMPO 3000 RA OVC004
  • 110200Z AUTO 22008KT 9999 FEW011 BKN023 OVC028 10/09 Q1007 TEMPO 3000 RA OVC004
  • 110130Z AUTO 22009KT 9999 FEW012/// BKN022/// BKN034/// ///TCU 10/10 Q1007 TEMPO 3000 RA OVC004
  • 110100Z AUTO 21009KT 9999 FEW020/// SCT029/// BKN047/// ///CB 11/10 Q1007 TEMPO 3000 RA OVC004

TAF TAF LFOK
Valid from the 11 at 00:00 until the 12 at 00:00 UTC


102300Z 1100/1124 19013KT 9999 BKN030
TEMPO 1100/1104 3000 RA OVC004
FM110400 33008KT 9999 BKN007 BKN020
TEMPO 1104/1116 3000 RA OVC004
BECMG 1116/1118 BKN030



MET'MAP, your aeronautical weather chart ! - Copyright ORBIFLY December 2007 - Disclaimer

ORBIFLY MET'MAP TEAM :

Programming & Development : Alexandra Zaïnal
Concept & original design : Baudouin d'Aumeries
Assistance for programming : Marc-Olivier Méhu
Technical & hardware support : Manuel Goepfert

Contact : metmap@orbifly.com




SOURCES & CREDITS :

   NOAA